sensor_id;sensor_type;location;lat;lon;timestamp;P1;durP1;ratioP1;P2;durP2;ratioP2
75793;SDS011;64418;47.536;19.074;2023-05-21T00:01:43;12.23;;;6.80;;
75793;SDS011;64418;47.536;19.074;2023-05-21T00:04:10;10.68;;;6.80;;
75793;SDS011;64418;47.536;19.074;2023-05-21T00:06:36;10.95;;;7.05;;
75793;SDS011;64418;47.536;19.074;2023-05-21T00:09:02;11.80;;;7.20;;
75793;SDS011;64418;47.536;19.074;2023-05-21T00:11:28;12.43;;;6.72;;
75793;SDS011;64418;47.536;19.074;2023-05-21T00:13:54;11.65;;;7.00;;
75793;SDS011;64418;47.536;19.074;2023-05-21T00:16:20;12.80;;;7.50;;
75793;SDS011;64418;47.536;19.074;2023-05-21T00:18:46;9.05;;;6.30;;
75793;SDS011;64418;47.536;19.074;2023-05-21T00:21:14;11.95;;;6.78;;
75793;SDS011;64418;47.536;19.074;2023-05-21T00:23:40;10.02;;;6.72;;
75793;SDS011;64418;47.536;19.074;2023-05-21T00:26:06;9.17;;;6.17;;
75793;SDS011;64418;47.536;19.074;2023-05-21T00:28:33;13.73;;;6.60;;
75793;SDS011;64418;47.536;19.074;2023-05-21T00:30:59;10.80;;;6.60;;
75793;SDS011;64418;47.536;19.074;2023-05-21T00:33:25;11.03;;;6.30;;
75793;SDS011;64418;47.536;19.074;2023-05-21T00:35:51;12.40;;;6.35;;
75793;SDS011;64418;47.536;19.074;2023-05-21T00:38:18;9.47;;;6.17;;
75793;SDS011;64418;47.536;19.074;2023-05-21T00:40:44;9.75;;;6.50;;
75793;SDS011;64418;47.536;19.074;2023-05-21T00:43:09;8.55;;;6.07;;
75793;SDS011;64418;47.536;19.074;2023-05-21T00:45:35;10.93;;;6.43;;
75793;SDS011;64418;47.536;19.074;2023-05-21T00:48:04;11.45;;;6.20;;
75793;SDS011;64418;47.536;19.074;2023-05-21T00:50:30;9.15;;;6.00;;
75793;SDS011;64418;47.536;19.074;2023-05-21T00:52:59;9.60;;;6.62;;
75793;SDS011;64418;47.536;19.074;2023-05-21T00:55:26;10.00;;;6.60;;
75793;SDS011;64418;47.536;19.074;2023-05-21T00:57:52;11.82;;;6.80;;
75793;SDS011;64418;47.536;19.074;2023-05-21T01:00:21;11.30;;;7.30;;
75793;SDS011;64418;47.536;19.074;2023-05-21T01:02:47;8.77;;;6.12;;
75793;SDS011;64418;47.536;19.074;2023-05-21T01:05:13;11.13;;;6.33;;
75793;SDS011;64418;47.536;19.074;2023-05-21T01:07:39;10.23;;;6.57;;
75793;SDS011;64418;47.536;19.074;2023-05-21T01:10:05;9.95;;;6.87;;
75793;SDS011;64418;47.536;19.074;2023-05-21T01:12:35;14.30;;;6.43;;
75793;SDS011;64418;47.536;19.074;2023-05-21T01:15:03;12.18;;;6.25;;
75793;SDS011;64418;47.536;19.074;2023-05-21T01:17:30;10.48;;;6.57;;
75793;SDS011;64418;47.536;19.074;2023-05-21T01:19:56;11.60;;;6.32;;
75793;SDS011;64418;47.536;19.074;2023-05-21T01:22:22;11.30;;;6.72;;
75793;SDS011;64418;47.536;19.074;2023-05-21T01:24:52;9.47;;;6.20;;
75793;SDS011;64418;47.536;19.074;2023-05-21T01:27:18;8.57;;;5.72;;
75793;SDS011;64418;47.536;19.074;2023-05-21T01:29:44;12.18;;;6.70;;
75793;SDS011;64418;47.536;19.074;2023-05-21T01:32:11;11.55;;;6.40;;
75793;SDS011;64418;47.536;19.074;2023-05-21T01:34:43;10.00;;;6.10;;
75793;SDS011;64418;47.536;19.074;2023-05-21T01:37:16;11.02;;;6.82;;
75793;SDS011;64418;47.536;19.074;2023-05-21T01:39:50;9.52;;;6.40;;
75793;SDS011;64418;47.536;19.074;2023-05-21T01:42:20;11.32;;;6.80;;
75793;SDS011;64418;47.536;19.074;2023-05-21T01:44:48;9.95;;;6.55;;
75793;SDS011;64418;47.536;19.074;2023-05-21T01:47:19;11.37;;;6.40;;
75793;SDS011;64418;47.536;19.074;2023-05-21T01:49:47;11.90;;;7.18;;
75793;SDS011;64418;47.536;19.074;2023-05-21T01:52:14;11.32;;;6.28;;
75793;SDS011;64418;47.536;19.074;2023-05-21T01:54:40;11.27;;;6.95;;
75793;SDS011;64418;47.536;19.074;2023-05-21T01:57:07;10.63;;;6.27;;
75793;SDS011;64418;47.536;19.074;2023-05-21T01:59:33;10.65;;;6.82;;
75793;SDS011;64418;47.536;19.074;2023-05-21T02:01:59;12.05;;;6.75;;
75793;SDS011;64418;47.536;19.074;2023-05-21T02:04:26;9.63;;;6.47;;
75793;SDS011;64418;47.536;19.074;2023-05-21T02:06:55;12.27;;;6.77;;
75793;SDS011;64418;47.536;19.074;2023-05-21T02:09:21;10.10;;;6.45;;
75793;SDS011;64418;47.536;19.074;2023-05-21T02:11:46;12.95;;;6.85;;
75793;SDS011;64418;47.536;19.074;2023-05-21T02:14:14;10.30;;;6.45;;
75793;SDS011;64418;47.536;19.074;2023-05-21T02:16:40;12.00;;;6.80;;
75793;SDS011;64418;47.536;19.074;2023-05-21T02:19:05;12.60;;;7.20;;
75793;SDS011;64418;47.536;19.074;2023-05-21T02:21:31;10.50;;;7.10;;
75793;SDS011;64418;47.536;19.074;2023-05-21T02:23:57;12.13;;;6.90;;
75793;SDS011;64418;47.536;19.074;2023-05-21T02:26:25;10.23;;;6.77;;
75793;SDS011;64418;47.536;19.074;2023-05-21T02:28:53;11.18;;;7.03;;
75793;SDS011;64418;47.536;19.074;2023-05-21T02:31:26;11.27;;;6.70;;
75793;SDS011;64418;47.536;19.074;2023-05-21T02:33:52;10.48;;;6.95;;
75793;SDS011;64418;47.536;19.074;2023-05-21T02:36:18;9.80;;;6.70;;
75793;SDS011;64418;47.536;19.074;2023-05-21T02:38:43;13.88;;;6.93;;
75793;SDS011;64418;47.536;19.074;2023-05-21T02:41:09;13.77;;;6.83;;
75793;SDS011;64418;47.536;19.074;2023-05-21T02:43:35;11.90;;;7.30;;
75793;SDS011;64418;47.536;19.074;2023-05-21T02:46:00;11.03;;;6.80;;
75793;SDS011;64418;47.536;19.074;2023-05-21T02:48:27;10.50;;;6.93;;
75793;SDS011;64418;47.536;19.074;2023-05-21T02:50:53;12.48;;;7.12;;
75793;SDS011;64418;47.536;19.074;2023-05-21T02:53:19;11.50;;;7.03;;
75793;SDS011;64418;47.536;19.074;2023-05-21T02:55:45;11.65;;;7.18;;
75793;SDS011;64418;47.536;19.074;2023-05-21T02:58:11;10.48;;;6.93;;
75793;SDS011;64418;47.536;19.074;2023-05-21T03:00:36;12.13;;;6.70;;
75793;SDS011;64418;47.536;19.074;2023-05-21T03:03:02;10.88;;;7.12;;
75793;SDS011;64418;47.536;19.074;2023-05-21T03:05:29;12.43;;;7.03;;
75793;SDS011;64418;47.536;19.074;2023-05-21T03:07:55;12.35;;;6.90;;
75793;SDS011;64418;47.536;19.074;2023-05-21T03:10:20;10.68;;;7.18;;
75793;SDS011;64418;47.536;19.074;2023-05-21T03:12:46;9.67;;;7.03;;
75793;SDS011;64418;47.536;19.074;2023-05-21T03:15:12;11.15;;;7.28;;
75793;SDS011;64418;47.536;19.074;2023-05-21T03:17:37;9.70;;;6.50;;
75793;SDS011;64418;47.536;19.074;2023-05-21T03:20:03;11.38;;;6.78;;
75793;SDS011;64418;47.536;19.074;2023-05-21T03:22:32;11.05;;;6.70;;
75793;SDS011;64418;47.536;19.074;2023-05-21T03:24:58;11.17;;;6.53;;
75793;SDS011;64418;47.536;19.074;2023-05-21T03:27:24;9.70;;;6.43;;
75793;SDS011;64418;47.536;19.074;2023-05-21T03:29:53;10.73;;;6.53;;
75793;SDS011;64418;47.536;19.074;2023-05-21T03:32:18;8.82;;;5.55;;
75793;SDS011;64418;47.536;19.074;2023-05-21T03:34:47;9.70;;;6.80;;
75793;SDS011;64418;47.536;19.074;2023-05-21T03:37:13;9.20;;;6.45;;
75793;SDS011;64418;47.536;19.074;2023-05-21T03:39:40;13.25;;;6.70;;
75793;SDS011;64418;47.536;19.074;2023-05-21T03:42:06;10.52;;;7.05;;
75793;SDS011;64418;47.536;19.074;2023-05-21T03:44:32;13.10;;;7.23;;
75793;SDS011;64418;47.536;19.074;2023-05-21T03:47:00;10.20;;;6.62;;
75793;SDS011;64418;47.536;19.074;2023-05-21T03:49:26;12.37;;;7.47;;
75793;SDS011;64418;47.536;19.074;2023-05-21T03:51:52;12.00;;;7.07;;
75793;SDS011;64418;47.536;19.074;2023-05-21T03:54:21;11.88;;;7.18;;
75793;SDS011;64418;47.536;19.074;2023-05-21T03:56:48;11.50;;;7.40;;
75793;SDS011;64418;47.536;19.074;2023-05-21T03:59:17;12.03;;;7.70;;
75793;SDS011;64418;47.536;19.074;2023-05-21T04:01:43;12.00;;;6.90;;
75793;SDS011;64418;47.536;19.074;2023-05-21T04:04:08;11.82;;;7.07;;
75793;SDS011;64418;47.536;19.074;2023-05-21T04:06:34;11.87;;;7.47;;
75793;SDS011;64418;47.536;19.074;2023-05-21T04:09:00;10.30;;;6.82;;
75793;SDS011;64418;47.536;19.074;2023-05-21T04:11:26;11.80;;;6.57;;
75793;SDS011;64418;47.536;19.074;2023-05-21T04:13:53;9.27;;;6.30;;
75793;SDS011;64418;47.536;19.074;2023-05-21T04:16:18;9.75;;;6.25;;
75793;SDS011;64418;47.536;19.074;2023-05-21T04:18:44;11.88;;;6.68;;
75793;SDS011;64418;47.536;19.074;2023-05-21T04:21:11;9.40;;;6.67;;
75793;SDS011;64418;47.536;19.074;2023-05-21T04:23:37;9.18;;;6.12;;
75793;SDS011;64418;47.536;19.074;2023-05-21T04:26:02;10.60;;;5.95;;
75793;SDS011;64418;47.536;19.074;2023-05-21T04:28:28;12.33;;;6.03;;
75793;SDS011;64418;47.536;19.074;2023-05-21T04:30:55;10.23;;;6.15;;
75793;SDS011;64418;47.536;19.074;2023-05-21T04:33:24;12.05;;;7.57;;
75793;SDS011;64418;47.536;19.074;2023-05-21T04:35:50;9.13;;;6.10;;
75793;SDS011;64418;47.536;19.074;2023-05-21T04:38:16;11.93;;;6.57;;
75793;SDS011;64418;47.536;19.074;2023-05-21T04:40:42;9.23;;;6.30;;
75793;SDS011;64418;47.536;19.074;2023-05-21T04:43:08;11.60;;;6.53;;
75793;SDS011;64418;47.536;19.074;2023-05-21T04:45:34;9.55;;;6.00;;
75793;SDS011;64418;47.536;19.074;2023-05-21T04:48:01;8.13;;;5.47;;
75793;SDS011;64418;47.536;19.074;2023-05-21T04:50:26;11.18;;;6.47;;
75793;SDS011;64418;47.536;19.074;2023-05-21T04:52:52;10.83;;;6.43;;
75793;SDS011;64418;47.536;19.074;2023-05-21T04:55:18;9.77;;;6.60;;
75793;SDS011;64418;47.536;19.074;2023-05-21T04:57:44;9.52;;;6.22;;
75793;SDS011;64418;47.536;19.074;2023-05-21T05:00:10;10.40;;;5.87;;
75793;SDS011;64418;47.536;19.074;2023-05-21T05:02:37;10.10;;;6.03;;
75793;SDS011;64418;47.536;19.074;2023-05-21T05:05:07;9.35;;;5.45;;
75793;SDS011;64418;47.536;19.074;2023-05-21T05:07:33;7.93;;;5.30;;
75793;SDS011;64418;47.536;19.074;2023-05-21T05:09:59;8.50;;;5.15;;
75793;SDS011;64418;47.536;19.074;2023-05-21T05:12:25;10.27;;;5.47;;
75793;SDS011;64418;47.536;19.074;2023-05-21T05:14:51;7.28;;;5.25;;
75793;SDS011;64418;47.536;19.074;2023-05-21T05:17:17;12.18;;;6.25;;
75793;SDS011;64418;47.536;19.074;2023-05-21T05:19:42;8.10;;;6.03;;
75793;SDS011;64418;47.536;19.074;2023-05-21T05:22:15;11.67;;;6.30;;
75793;SDS011;64418;47.536;19.074;2023-05-21T05:24:41;11.70;;;5.40;;
75793;SDS011;64418;47.536;19.074;2023-05-21T05:27:09;9.10;;;5.03;;
75793;SDS011;64418;47.536;19.074;2023-05-21T05:29:35;7.45;;;4.55;;
75793;SDS011;64418;47.536;19.074;2023-05-21T05:32:01;6.70;;;4.53;;
75793;SDS011;64418;47.536;19.074;2023-05-21T05:34:28;6.82;;;4.00;;
75793;SDS011;64418;47.536;19.074;2023-05-21T05:36:54;8.73;;;3.92;;
75793;SDS011;64418;47.536;19.074;2023-05-21T05:39:21;5.00;;;3.30;;
75793;SDS011;64418;47.536;19.074;2023-05-21T05:41:47;7.87;;;4.00;;
75793;SDS011;64418;47.536;19.074;2023-05-21T05:44:13;6.57;;;3.77;;
75793;SDS011;64418;47.536;19.074;2023-05-21T05:46:39;6.25;;;4.15;;
75793;SDS011;64418;47.536;19.074;2023-05-21T05:49:04;6.28;;;4.05;;
75793;SDS011;64418;47.536;19.074;2023-05-21T05:51:30;8.03;;;3.97;;
75793;SDS011;64418;47.536;19.074;2023-05-21T05:53:56;7.95;;;4.07;;
75793;SDS011;64418;47.536;19.074;2023-05-21T05:56:23;5.97;;;4.20;;
75793;SDS011;64418;47.536;19.074;2023-05-21T05:58:49;6.35;;;4.28;;
75793;SDS011;64418;47.536;19.074;2023-05-21T06:01:15;6.85;;;4.10;;
75793;SDS011;64418;47.536;19.074;2023-05-21T06:03:41;6.63;;;4.17;;
75793;SDS011;64418;47.536;19.074;2023-05-21T06:06:06;6.20;;;4.00;;
75793;SDS011;64418;47.536;19.074;2023-05-21T06:08:32;6.33;;;4.10;;
75793;SDS011;64418;47.536;19.074;2023-05-21T06:10:58;7.07;;;4.10;;
75793;SDS011;64418;47.536;19.074;2023-05-21T06:13:25;7.97;;;4.32;;
75793;SDS011;64418;47.536;19.074;2023-05-21T06:15:51;5.82;;;3.90;;
75793;SDS011;64418;47.536;19.074;2023-05-21T06:18:18;6.33;;;4.07;;
75793;SDS011;64418;47.536;19.074;2023-05-21T06:20:43;5.93;;;3.97;;
75793;SDS011;64418;47.536;19.074;2023-05-21T06:23:09;5.85;;;4.03;;
75793;SDS011;64418;47.536;19.074;2023-05-21T06:25:35;7.73;;;4.33;;
75793;SDS011;64418;47.536;19.074;2023-05-21T06:28:01;6.55;;;4.12;;
75793;SDS011;64418;47.536;19.074;2023-05-21T06:30:28;5.57;;;3.78;;
75793;SDS011;64418;47.536;19.074;2023-05-21T06:32:54;4.85;;;3.97;;
75793;SDS011;64418;47.536;19.074;2023-05-21T06:35:20;5.30;;;4.20;;
75793;SDS011;64418;47.536;19.074;2023-05-21T06:37:46;6.10;;;3.92;;
75793;SDS011;64418;47.536;19.074;2023-05-21T06:40:11;5.65;;;3.95;;
75793;SDS011;64418;47.536;19.074;2023-05-21T06:42:37;7.03;;;3.83;;
75793;SDS011;64418;47.536;19.074;2023-05-21T06:45:04;4.90;;;4.10;;
75793;SDS011;64418;47.536;19.074;2023-05-21T06:47:50;6.45;;;4.15;;
75793;SDS011;64418;47.536;19.074;2023-05-21T06:50:34;5.30;;;3.67;;
75793;SDS011;64418;47.536;19.074;2023-05-21T06:53:20;5.45;;;3.90;;
75793;SDS011;64418;47.536;19.074;2023-05-21T06:56:04;5.37;;;4.10;;
75793;SDS011;64418;47.536;19.074;2023-05-21T06:58:49;5.65;;;3.80;;
75793;SDS011;64418;47.536;19.074;2023-05-21T07:01:34;6.50;;;4.00;;
75793;SDS011;64418;47.536;19.074;2023-05-21T07:04:20;6.17;;;3.70;;
75793;SDS011;64418;47.536;19.074;2023-05-21T07:07:04;6.53;;;4.10;;
75793;SDS011;64418;47.536;19.074;2023-05-21T07:09:49;5.93;;;3.60;;
75793;SDS011;64418;47.536;19.074;2023-05-21T07:12:34;5.68;;;3.60;;
75793;SDS011;64418;47.536;19.074;2023-05-21T07:15:18;8.95;;;4.50;;
75793;SDS011;64418;47.536;19.074;2023-05-21T07:18:03;4.57;;;3.80;;
75793;SDS011;64418;47.536;19.074;2023-05-21T07:20:52;5.45;;;3.90;;
75793;SDS011;64418;47.536;19.074;2023-05-21T07:23:36;5.68;;;4.03;;
75793;SDS011;64418;47.536;19.074;2023-05-21T07:26:20;5.35;;;4.07;;
75793;SDS011;64418;47.536;19.074;2023-05-21T07:29:05;5.07;;;3.83;;
75793;SDS011;64418;47.536;19.074;2023-05-21T07:31:52;6.77;;;3.80;;
75793;SDS011;64418;47.536;19.074;2023-05-21T07:34:37;5.80;;;3.75;;
75793;SDS011;64418;47.536;19.074;2023-05-21T07:37:26;10.00;;;3.65;;
75793;SDS011;64418;47.536;19.074;2023-05-21T07:40:11;5.43;;;3.83;;
75793;SDS011;64418;47.536;19.074;2023-05-21T07:42:57;5.35;;;3.80;;
75793;SDS011;64418;47.536;19.074;2023-05-21T07:45:41;6.40;;;3.90;;
75793;SDS011;64418;47.536;19.074;2023-05-21T07:48:26;7.32;;;3.62;;
75793;SDS011;64418;47.536;19.074;2023-05-21T07:51:11;5.57;;;3.85;;
75793;SDS011;64418;47.536;19.074;2023-05-21T07:53:57;6.50;;;3.90;;
75793;SDS011;64418;47.536;19.074;2023-05-21T07:56:41;6.82;;;4.05;;
75793;SDS011;64418;47.536;19.074;2023-05-21T07:59:26;4.40;;;3.73;;
75793;SDS011;64418;47.536;19.074;2023-05-21T08:02:11;4.95;;;3.42;;
75793;SDS011;64418;47.536;19.074;2023-05-21T08:04:55;5.80;;;3.70;;
75793;SDS011;64418;47.536;19.074;2023-05-21T08:07:39;5.95;;;3.60;;
75793;SDS011;64418;47.536;19.074;2023-05-21T08:10:25;7.25;;;3.70;;
75793;SDS011;64418;47.536;19.074;2023-05-21T08:13:10;6.90;;;4.00;;
75793;SDS011;64418;47.536;19.074;2023-05-21T08:15:54;5.72;;;3.70;;
75793;SDS011;64418;47.536;19.074;2023-05-21T08:18:39;5.82;;;3.35;;
75793;SDS011;64418;47.536;19.074;2023-05-21T08:21:23;6.07;;;4.07;;
75793;SDS011;64418;47.536;19.074;2023-05-21T08:24:08;4.25;;;3.53;;
75793;SDS011;64418;47.536;19.074;2023-05-21T08:26:54;4.93;;;3.57;;
75793;SDS011;64418;47.536;19.074;2023-05-21T08:29:41;5.68;;;3.28;;
75793;SDS011;64418;47.536;19.074;2023-05-21T08:32:26;5.82;;;3.17;;
75793;SDS011;64418;47.536;19.074;2023-05-21T08:35:11;6.62;;;4.03;;
75793;SDS011;64418;47.536;19.074;2023-05-21T08:37:55;6.07;;;3.70;;
75793;SDS011;64418;47.536;19.074;2023-05-21T08:40:40;7.87;;;3.60;;
75793;SDS011;64418;47.536;19.074;2023-05-21T08:43:28;4.43;;;3.87;;
75793;SDS011;64418;47.536;19.074;2023-05-21T08:46:12;4.37;;;3.15;;
75793;SDS011;64418;47.536;19.074;2023-05-21T08:49:00;4.97;;;3.20;;
75793;SDS011;64418;47.536;19.074;2023-05-21T08:51:46;7.85;;;3.87;;
75793;SDS011;64418;47.536;19.074;2023-05-21T08:54:32;7.27;;;3.80;;
75793;SDS011;64418;47.536;19.074;2023-05-21T08:57:18;4.35;;;3.58;;
75793;SDS011;64418;47.536;19.074;2023-05-21T09:00:08;4.95;;;3.78;;
75793;SDS011;64418;47.536;19.074;2023-05-21T09:02:53;6.32;;;3.50;;
75793;SDS011;64418;47.536;19.074;2023-05-21T09:05:38;5.47;;;3.80;;
75793;SDS011;64418;47.536;19.074;2023-05-21T09:08:26;5.83;;;3.20;;
75793;SDS011;64418;47.536;19.074;2023-05-21T09:11:14;5.05;;;3.12;;
75793;SDS011;64418;47.536;19.074;2023-05-21T09:13:59;5.37;;;3.40;;
75793;SDS011;64418;47.536;19.074;2023-05-21T09:16:46;4.75;;;3.28;;
75793;SDS011;64418;47.536;19.074;2023-05-21T09:19:31;5.87;;;3.70;;
75793;SDS011;64418;47.536;19.074;2023-05-21T09:22:15;4.80;;;3.27;;
75793;SDS011;64418;47.536;19.074;2023-05-21T09:25:06;4.95;;;3.58;;
75793;SDS011;64418;47.536;19.074;2023-05-21T09:27:52;5.28;;;3.08;;
75793;SDS011;64418;47.536;19.074;2023-05-21T09:30:42;5.87;;;3.50;;
75793;SDS011;64418;47.536;19.074;2023-05-21T09:33:28;4.87;;;3.47;;
75793;SDS011;64418;47.536;19.074;2023-05-21T09:36:16;6.50;;;3.80;;
75793;SDS011;64418;47.536;19.074;2023-05-21T09:39:02;7.28;;;3.78;;
75793;SDS011;64418;47.536;19.074;2023-05-21T09:41:46;4.47;;;3.20;;
75793;SDS011;64418;47.536;19.074;2023-05-21T09:44:31;5.70;;;3.30;;
75793;SDS011;64418;47.536;19.074;2023-05-21T09:47:20;4.53;;;3.55;;
75793;SDS011;64418;47.536;19.074;2023-05-21T09:50:07;5.03;;;3.63;;
75793;SDS011;64418;47.536;19.074;2023-05-21T09:52:52;3.62;;;3.22;;
75793;SDS011;64418;47.536;19.074;2023-05-21T09:55:38;5.93;;;3.50;;
75793;SDS011;64418;47.536;19.074;2023-05-21T09:58:23;5.30;;;3.70;;
75793;SDS011;64418;47.536;19.074;2023-05-21T10:01:09;6.32;;;3.70;;
75793;SDS011;64418;47.536;19.074;2023-05-21T10:03:54;4.53;;;3.33;;
75793;SDS011;64418;47.536;19.074;2023-05-21T10:06:42;4.95;;;3.97;;
75793;SDS011;64418;47.536;19.074;2023-05-21T10:09:27;4.68;;;3.67;;
75793;SDS011;64418;47.536;19.074;2023-05-21T10:12:13;6.28;;;4.00;;
75793;SDS011;64418;47.536;19.074;2023-05-21T10:15:03;4.78;;;3.47;;
75793;SDS011;64418;47.536;19.074;2023-05-21T10:17:56;6.07;;;3.57;;
75793;SDS011;64418;47.536;19.074;2023-05-21T10:20:44;5.18;;;3.60;;
75793;SDS011;64418;47.536;19.074;2023-05-21T10:23:31;5.22;;;3.20;;
75793;SDS011;64418;47.536;19.074;2023-05-21T10:26:18;7.12;;;4.07;;
75793;SDS011;64418;47.536;19.074;2023-05-21T10:29:04;4.80;;;3.50;;
75793;SDS011;64418;47.536;19.074;2023-05-21T10:31:51;5.57;;;3.67;;
75793;SDS011;64418;47.536;19.074;2023-05-21T10:34:35;4.62;;;3.30;;
75793;SDS011;64418;47.536;19.074;2023-05-21T10:37:21;5.62;;;3.28;;
75793;SDS011;64418;47.536;19.074;2023-05-21T10:40:08;3.97;;;3.17;;
75793;SDS011;64418;47.536;19.074;2023-05-21T10:46:23;6.53;;;3.50;;
75793;SDS011;64418;47.536;19.074;2023-05-21T10:49:49;6.03;;;3.60;;
75793;SDS011;64418;47.536;19.074;2023-05-21T10:52:45;4.97;;;3.42;;
75793;SDS011;64418;47.536;19.074;2023-05-21T10:55:45;5.05;;;3.30;;
75793;SDS011;64418;47.536;19.074;2023-05-21T10:58:42;4.10;;;3.45;;
75793;SDS011;64418;47.536;19.074;2023-05-21T11:01:44;3.67;;;3.37;;
75793;SDS011;64418;47.536;19.074;2023-05-21T11:04:29;7.15;;;3.70;;
75793;SDS011;64418;47.536;19.074;2023-05-21T11:07:21;5.40;;;3.70;;
75793;SDS011;64418;47.536;19.074;2023-05-21T11:13:14;5.70;;;3.70;;
75793;SDS011;64418;47.536;19.074;2023-05-21T11:16:03;7.80;;;3.90;;
75793;SDS011;64418;47.536;19.074;2023-05-21T11:19:00;7.30;;;3.75;;
75793;SDS011;64418;47.536;19.074;2023-05-21T11:21:49;3.15;;;2.85;;
75793;SDS011;64418;47.536;19.074;2023-05-21T11:24:37;5.35;;;3.30;;
75793;SDS011;64418;47.536;19.074;2023-05-21T11:27:30;4.60;;;3.17;;
75793;SDS011;64418;47.536;19.074;2023-05-21T11:30:17;6.93;;;3.53;;
75793;SDS011;64418;47.536;19.074;2023-05-21T11:33:20;4.20;;;3.03;;
75793;SDS011;64418;47.536;19.074;2023-05-21T11:36:11;5.18;;;3.70;;
75793;SDS011;64418;47.536;19.074;2023-05-21T11:39:07;6.37;;;3.55;;
75793;SDS011;64418;47.536;19.074;2023-05-21T11:41:52;5.60;;;3.50;;
75793;SDS011;64418;47.536;19.074;2023-05-21T11:44:39;5.20;;;3.47;;
75793;SDS011;64418;47.536;19.074;2023-05-21T11:47:27;5.70;;;3.60;;
75793;SDS011;64418;47.536;19.074;2023-05-21T11:50:12;5.37;;;3.83;;
75793;SDS011;64418;47.536;19.074;2023-05-21T11:52:57;5.12;;;3.70;;
75793;SDS011;64418;47.536;19.074;2023-05-21T11:55:42;4.22;;;3.40;;
75793;SDS011;64418;47.536;19.074;2023-05-21T11:58:29;5.40;;;3.57;;
75793;SDS011;64418;47.536;19.074;2023-05-21T12:01:20;5.25;;;3.62;;
75793;SDS011;64418;47.536;19.074;2023-05-21T12:04:06;8.82;;;3.75;;
75793;SDS011;64418;47.536;19.074;2023-05-21T12:06:50;5.43;;;3.60;;
75793;SDS011;64418;47.536;19.074;2023-05-21T12:09:38;4.87;;;3.83;;
75793;SDS011;64418;47.536;19.074;2023-05-21T12:12:24;5.30;;;3.80;;
75793;SDS011;64418;47.536;19.074;2023-05-21T12:15:09;4.25;;;3.37;;
75793;SDS011;64418;47.536;19.074;2023-05-21T12:17:54;4.55;;;3.90;;
75793;SDS011;64418;47.536;19.074;2023-05-21T12:20:40;5.10;;;3.70;;
75793;SDS011;64418;47.536;19.074;2023-05-21T12:23:26;6.55;;;3.60;;
75793;SDS011;64418;47.536;19.074;2023-05-21T12:26:10;7.33;;;4.40;;
75793;SDS011;64418;47.536;19.074;2023-05-21T12:28:55;5.05;;;3.55;;
75793;SDS011;64418;47.536;19.074;2023-05-21T12:31:49;5.15;;;3.72;;
75793;SDS011;64418;47.536;19.074;2023-05-21T12:34:37;6.65;;;4.00;;
75793;SDS011;64418;47.536;19.074;2023-05-21T12:37:25;6.10;;;3.80;;
75793;SDS011;64418;47.536;19.074;2023-05-21T12:40:11;5.00;;;3.60;;
75793;SDS011;64418;47.536;19.074;2023-05-21T12:42:55;6.60;;;4.07;;
75793;SDS011;64418;47.536;19.074;2023-05-21T12:45:40;6.65;;;3.62;;
75793;SDS011;64418;47.536;19.074;2023-05-21T12:48:27;4.15;;;3.75;;
75793;SDS011;64418;47.536;19.074;2023-05-21T12:51:12;5.45;;;4.12;;
75793;SDS011;64418;47.536;19.074;2023-05-21T12:53:58;7.47;;;4.30;;
75793;SDS011;64418;47.536;19.074;2023-05-21T12:56:42;3.95;;;3.33;;
75793;SDS011;64418;47.536;19.074;2023-05-21T12:59:27;6.35;;;3.58;;
75793;SDS011;64418;47.536;19.074;2023-05-21T13:02:27;5.53;;;3.80;;
75793;SDS011;64418;47.536;19.074;2023-05-21T13:05:14;5.97;;;3.75;;
75793;SDS011;64418;47.536;19.074;2023-05-21T13:08:00;4.93;;;3.83;;
75793;SDS011;64418;47.536;19.074;2023-05-21T13:10:47;8.15;;;4.22;;
75793;SDS011;64418;47.536;19.074;2023-05-21T13:13:31;6.53;;;3.50;;
75793;SDS011;64418;47.536;19.074;2023-05-21T13:16:19;7.80;;;3.70;;
75793;SDS011;64418;47.536;19.074;2023-05-21T13:19:04;5.70;;;3.70;;
75793;SDS011;64418;47.536;19.074;2023-05-21T13:21:49;5.57;;;3.53;;
75793;SDS011;64418;47.536;19.074;2023-05-21T13:24:33;5.53;;;4.15;;
75793;SDS011;64418;47.536;19.074;2023-05-21T13:27:19;4.97;;;3.65;;
75793;SDS011;64418;47.536;19.074;2023-05-21T13:30:04;7.37;;;3.72;;
75793;SDS011;64418;47.536;19.074;2023-05-21T13:32:49;6.65;;;3.55;;
75793;SDS011;64418;47.536;19.074;2023-05-21T13:35:34;4.63;;;3.60;;
75793;SDS011;64418;47.536;19.074;2023-05-21T13:38:18;5.22;;;3.78;;
75793;SDS011;64418;47.536;19.074;2023-05-21T13:41:05;5.00;;;3.78;;
75793;SDS011;64418;47.536;19.074;2023-05-21T13:43:51;4.87;;;3.40;;
75793;SDS011;64418;47.536;19.074;2023-05-21T13:46:36;4.40;;;3.83;;
75793;SDS011;64418;47.536;19.074;2023-05-21T13:49:20;5.53;;;3.63;;
75793;SDS011;64418;47.536;19.074;2023-05-21T13:52:05;5.70;;;3.87;;
75793;SDS011;64418;47.536;19.074;2023-05-21T13:54:50;5.80;;;3.80;;
75793;SDS011;64418;47.536;19.074;2023-05-21T13:57:35;4.75;;;3.60;;
75793;SDS011;64418;47.536;19.074;2023-05-21T14:00:21;5.22;;;3.50;;
75793;SDS011;64418;47.536;19.074;2023-05-21T14:03:05;4.37;;;3.40;;
75793;SDS011;64418;47.536;19.074;2023-05-21T14:05:50;6.40;;;3.28;;
75793;SDS011;64418;47.536;19.074;2023-05-21T14:08:34;5.80;;;3.50;;
75793;SDS011;64418;47.536;19.074;2023-05-21T14:11:18;4.35;;;3.85;;
75793;SDS011;64418;47.536;19.074;2023-05-21T14:14:03;4.22;;;3.30;;
75793;SDS011;64418;47.536;19.074;2023-05-21T14:16:49;5.63;;;3.73;;
75793;SDS011;64418;47.536;19.074;2023-05-21T14:19:34;6.32;;;3.53;;
75793;SDS011;64418;47.536;19.074;2023-05-21T14:22:19;5.87;;;3.70;;
75793;SDS011;64418;47.536;19.074;2023-05-21T14:25:04;6.90;;;3.85;;
75793;SDS011;64418;47.536;19.074;2023-05-21T14:27:48;5.85;;;3.55;;
75793;SDS011;64418;47.536;19.074;2023-05-21T14:30:33;5.40;;;3.90;;
75793;SDS011;64418;47.536;19.074;2023-05-21T14:33:19;4.05;;;3.40;;
75793;SDS011;64418;47.536;19.074;2023-05-21T14:36:07;7.45;;;3.50;;
75793;SDS011;64418;47.536;19.074;2023-05-21T14:38:51;5.82;;;3.75;;
75793;SDS011;64418;47.536;19.074;2023-05-21T14:41:37;5.70;;;3.65;;
75793;SDS011;64418;47.536;19.074;2023-05-21T14:44:22;7.57;;;3.97;;
75793;SDS011;64418;47.536;19.074;2023-05-21T14:47:07;5.55;;;4.18;;
75793;SDS011;64418;47.536;19.074;2023-05-21T14:49:53;4.62;;;3.37;;
75793;SDS011;64418;47.536;19.074;2023-05-21T14:52:37;6.28;;;4.00;;
75793;SDS011;64418;47.536;19.074;2023-05-21T14:55:22;6.57;;;4.55;;
75793;SDS011;64418;47.536;19.074;2023-05-21T14:58:07;6.13;;;4.03;;
75793;SDS011;64418;47.536;19.074;2023-05-21T15:00:52;7.70;;;3.90;;
75793;SDS011;64418;47.536;19.074;2023-05-21T15:03:36;4.43;;;3.45;;
75793;SDS011;64418;47.536;19.074;2023-05-21T15:06:22;9.88;;;4.10;;
75793;SDS011;64418;47.536;19.074;2023-05-21T15:09:07;5.62;;;3.97;;
75793;SDS011;64418;47.536;19.074;2023-05-21T15:11:52;6.00;;;4.50;;
75793;SDS011;64418;47.536;19.074;2023-05-21T15:14:36;6.95;;;4.50;;
75793;SDS011;64418;47.536;19.074;2023-05-21T15:17:21;6.57;;;4.28;;
75793;SDS011;64418;47.536;19.074;2023-05-21T15:20:05;9.65;;;6.07;;
75793;SDS011;64418;47.536;19.074;2023-05-21T15:22:52;10.32;;;5.62;;
75793;SDS011;64418;47.536;19.074;2023-05-21T15:25:36;5.73;;;3.70;;
75793;SDS011;64418;47.536;19.074;2023-05-21T15:28:22;6.45;;;4.07;;
75793;SDS011;64418;47.536;19.074;2023-05-21T15:31:07;6.53;;;3.85;;
75793;SDS011;64418;47.536;19.074;2023-05-21T15:33:52;6.93;;;4.18;;
75793;SDS011;64418;47.536;19.074;2023-05-21T15:36:36;5.43;;;3.62;;